createdAt,value
2022-10-31T00:01:00.124Z,9.84
2022-10-31T00:03:27.364Z,9.81
2022-10-31T00:05:54.286Z,9.80
2022-10-31T00:08:21.039Z,9.82
2022-10-31T00:10:47.825Z,9.82
2022-10-31T00:13:15.449Z,9.81
2022-10-31T00:15:42.707Z,9.84
2022-10-31T00:18:10.663Z,9.80
2022-10-31T00:20:38.848Z,9.78
2022-10-31T00:23:07.127Z,9.73
2022-10-31T00:25:37.224Z,9.65
2022-10-31T00:28:05.414Z,9.61
2022-10-31T00:30:32.260Z,9.60
2022-10-31T00:32:59.486Z,9.59
2022-10-31T00:35:26.462Z,9.58
2022-10-31T00:37:53.764Z,9.59
2022-10-31T00:40:20.641Z,9.59
2022-10-31T00:42:47.356Z,9.57
2022-10-31T00:45:14.228Z,9.59
2022-10-31T00:47:40.899Z,9.56
2022-10-31T00:50:08.504Z,9.55
2022-10-31T00:52:44.590Z,9.54
2022-10-31T00:55:11.328Z,9.55
2022-10-31T00:57:38.066Z,9.59
2022-10-31T01:00:06.477Z,9.57
2022-10-31T01:02:33.358Z,9.59
2022-10-31T01:05:00.969Z,9.54
2022-10-31T01:07:27.670Z,9.57
2022-10-31T01:09:54.372Z,9.61
2022-10-31T01:12:22.211Z,9.63
2022-10-31T01:14:48.919Z,9.61
2022-10-31T01:17:18.618Z,9.57
2022-10-31T01:19:47.213Z,9.60
2022-10-31T01:22:29.447Z,9.59
2022-10-31T01:24:59.142Z,9.57
2022-10-31T01:27:26.024Z,9.53
2022-10-31T01:29:52.759Z,9.54
2022-10-31T01:32:19.529Z,9.54
2022-10-31T01:34:46.221Z,9.60
2022-10-31T01:37:14.220Z,9.58
2022-10-31T01:39:40.882Z,9.60
2022-10-31T01:42:07.736Z,9.54
2022-10-31T01:44:34.325Z,9.57
2022-10-31T01:47:15.140Z,9.52
2022-10-31T01:49:48.499Z,9.53
2022-10-31T01:52:25.252Z,9.55
2022-10-31T01:55:06.078Z,9.59
2022-10-31T01:57:35.961Z,9.63
2022-10-31T02:00:09.167Z,9.69
2022-10-31T02:02:46.717Z,9.74
2022-10-31T02:05:17.436Z,9.77
2022-10-31T02:07:51.734Z,9.75
2022-10-31T02:10:22.195Z,9.75
2022-10-31T02:12:51.383Z,9.78
2022-10-31T02:15:18.119Z,9.76
2022-10-31T02:17:45.352Z,9.71
2022-10-31T02:20:15.782Z,9.74
2022-10-31T02:23:01.419Z,9.82
2022-10-31T02:25:43.262Z,9.87
2022-10-31T02:28:33.300Z,9.94
2022-10-31T02:31:44.143Z,9.95
2022-10-31T02:34:25.378Z,9.92
2022-10-31T02:37:03.070Z,9.86
2022-10-31T02:40:08.621Z,9.82
2022-10-31T02:43:07.969Z,9.79
2022-10-31T02:45:49.878Z,9.78
2022-10-31T02:48:23.546Z,9.76
2022-10-31T02:50:56.661Z,9.73
2022-10-31T02:53:23.461Z,9.79
2022-10-31T02:55:57.157Z,9.80
2022-10-31T02:58:27.470Z,9.77
2022-10-31T03:01:25.986Z,9.83
2022-10-31T03:04:17.177Z,9.83
2022-10-31T03:06:55.763Z,9.89
2022-10-31T03:09:41.968Z,10.00
2022-10-31T03:12:16.856Z,10.05
2022-10-31T03:14:53.762Z,10.09
2022-10-31T03:17:36.976Z,10.08
2022-10-31T03:20:07.724Z,10.12
2022-10-31T03:22:36.029Z,10.16
2022-10-31T03:25:05.411Z,10.22
2022-10-31T03:27:36.632Z,10.31
2022-10-31T03:30:06.455Z,10.25
2022-10-31T03:32:49.977Z,10.21
2022-10-31T03:35:20.610Z,10.14
2022-10-31T03:37:49.545Z,10.19
2022-10-31T03:40:19.604Z,10.21
2022-10-31T03:42:54.270Z,10.19
2022-10-31T03:45:26.721Z,10.13
2022-10-31T03:47:55.395Z,10.07
2022-10-31T03:50:24.578Z,10.08
2022-10-31T03:53:16.086Z,10.09
2022-10-31T03:55:46.704Z,10.09
2022-10-31T03:58:22.203Z,10.01
2022-10-31T04:00:51.837Z,9.96
2022-10-31T04:03:23.174Z,9.94
2022-10-31T04:05:54.999Z,9.92
2022-10-31T04:08:26.982Z,9.89
2022-10-31T04:10:57.173Z,9.89
2022-10-31T04:13:30.924Z,9.93
2022-10-31T04:16:06.665Z,9.91
2022-10-31T04:18:33.837Z,9.90
2022-10-31T04:21:02.676Z,9.89
2022-10-31T04:23:31.666Z,9.89
2022-10-31T04:25:59.918Z,9.89
2022-10-31T04:28:28.888Z,9.93
2022-10-31T04:30:55.577Z,9.97
2022-10-31T04:33:22.929Z,9.99
2022-10-31T04:35:49.683Z,9.98
2022-10-31T04:38:16.469Z,9.97
2022-10-31T04:40:44.402Z,9.99
2022-10-31T04:43:37.063Z,10.01
2022-10-31T04:46:03.900Z,9.93
2022-10-31T04:48:30.796Z,9.91
2022-10-31T04:51:02.053Z,9.90
2022-10-31T04:53:29.543Z,9.88
2022-10-31T04:56:15.089Z,9.81
2022-10-31T04:58:45.159Z,9.74
2022-10-31T05:01:12.577Z,9.68
2022-10-31T05:03:40.608Z,9.64
2022-10-31T05:06:08.003Z,9.58
2022-10-31T05:08:35.481Z,9.53
2022-10-31T05:11:05.591Z,9.56
2022-10-31T05:13:33.375Z,9.52
2022-10-31T05:16:12.154Z,9.55
2022-10-31T05:18:57.284Z,9.58
2022-10-31T05:21:42.464Z,9.66
2022-10-31T05:24:11.198Z,9.64
2022-10-31T05:26:40.054Z,9.61
2022-10-31T05:29:06.759Z,9.61
2022-10-31T05:31:33.748Z,9.61
2022-10-31T05:34:01.437Z,9.62
2022-10-31T05:36:34.151Z,9.63
2022-10-31T05:39:04.352Z,9.65
2022-10-31T05:41:35.682Z,9.57
2022-10-31T05:44:09.908Z,9.60
2022-10-31T05:46:51.733Z,9.66
2022-10-31T05:49:36.958Z,9.69
2022-10-31T05:52:22.151Z,9.71
2022-10-31T05:54:57.212Z,9.81
2022-10-31T05:57:24.163Z,9.89
2022-10-31T05:59:55.131Z,9.90
2022-10-31T06:02:23.821Z,9.94
2022-10-31T06:05:22.180Z,10.00
2022-10-31T06:07:49.132Z,10.08
2022-10-31T06:10:16.772Z,10.09
2022-10-31T06:12:46.189Z,10.04
2022-10-31T06:15:24.185Z,10.07
2022-10-31T06:18:03.611Z,10.17
2022-10-31T06:20:34.931Z,10.19
2022-10-31T06:23:04.588Z,10.24
2022-10-31T06:25:34.077Z,10.31
2022-10-31T06:28:00.950Z,10.40
2022-10-31T06:30:41.105Z,10.45
2022-10-31T06:33:08.453Z,10.50
2022-10-31T06:35:38.852Z,10.53
2022-10-31T06:38:05.902Z,10.57
2022-10-31T06:40:37.891Z,10.51
2022-10-31T06:43:24.893Z,10.45
2022-10-31T06:46:05.495Z,10.49
2022-10-31T06:48:38.921Z,10.51
2022-10-31T06:51:17.197Z,10.57
2022-10-31T06:53:44.271Z,10.60
2022-10-31T06:56:13.227Z,10.62
2022-10-31T06:58:46.043Z,10.73
2022-10-31T07:01:13.857Z,10.73
2022-10-31T07:03:40.974Z,10.73
2022-10-31T07:06:08.345Z,10.70
2022-10-31T07:08:35.085Z,10.77
2022-10-31T07:11:01.898Z,10.81
2022-10-31T07:13:30.071Z,10.77
2022-10-31T07:16:08.443Z,10.75
2022-10-31T07:18:36.522Z,10.75
2022-10-31T07:21:03.847Z,10.77
2022-10-31T07:23:30.650Z,10.79
2022-10-31T07:26:17.397Z,10.87
2022-10-31T07:28:48.147Z,10.93
2022-10-31T07:31:17.227Z,11.01
2022-10-31T07:33:44.102Z,11.10
2022-10-31T07:36:25.849Z,11.14
2022-10-31T07:38:55.135Z,11.24
2022-10-31T07:41:22.524Z,11.46
2022-10-31T07:43:49.423Z,11.53
2022-10-31T07:46:16.193Z,11.55
2022-10-31T07:49:20.833Z,11.58
2022-10-31T07:52:06.145Z,11.69
2022-10-31T07:54:53.069Z,11.80
2022-10-31T07:57:25.318Z,11.91
2022-10-31T07:59:52.931Z,11.94
2022-10-31T08:02:19.875Z,11.91
2022-10-31T08:04:49.991Z,11.93
2022-10-31T08:07:55.927Z,11.94
2022-10-31T08:10:23.534Z,11.98
2022-10-31T08:13:10.711Z,12.05
2022-10-31T08:15:42.752Z,12.24
2022-10-31T08:18:14.840Z,12.38
2022-10-31T08:20:43.975Z,12.56
2022-10-31T08:23:12.042Z,12.75
2022-10-31T08:25:39.346Z,12.87
2022-10-31T08:28:07.710Z,12.93
2022-10-31T08:30:36.423Z,12.86
2022-10-31T08:33:21.771Z,12.67
2022-10-31T08:36:28.647Z,12.71
2022-10-31T08:39:01.412Z,12.52
2022-10-31T08:41:29.584Z,12.43
2022-10-31T08:43:56.528Z,12.36
2022-10-31T08:46:23.265Z,12.31
2022-10-31T08:48:50.277Z,12.17
2022-10-31T08:51:18.227Z,12.32
2022-10-31T08:53:45.238Z,12.44
2022-10-31T08:56:32.254Z,12.81
2022-10-31T08:59:00.183Z,12.81
2022-10-31T09:01:56.260Z,12.84
2022-10-31T09:04:23.231Z,13.15
2022-10-31T09:07:19.600Z,13.17
2022-10-31T09:09:37.866Z,13.35
2022-10-31T09:12:04.868Z,13.37
2022-10-31T09:14:49.913Z,13.29
2022-10-31T09:17:25.130Z,13.32
2022-10-31T09:20:12.985Z,13.35
2022-10-31T09:22:39.798Z,13.61
2022-10-31T09:25:06.770Z,13.01
2022-10-31T09:27:33.504Z,13.16
2022-10-31T09:30:01.157Z,13.38
2022-10-31T09:32:27.873Z,13.74
2022-10-31T09:34:54.621Z,13.97
2022-10-31T09:37:21.429Z,14.04
2022-10-31T09:39:48.148Z,13.89
2022-10-31T09:42:52.699Z,13.54
2022-10-31T09:45:30.030Z,13.57
2022-10-31T09:48:17.660Z,13.51
2022-10-31T09:51:08.266Z,13.61
2022-10-31T09:54:03.908Z,13.86
2022-10-31T09:56:33.156Z,14.01
2022-10-31T09:59:02.800Z,14.15
2022-10-31T10:01:41.486Z,14.18
2022-10-31T10:04:27.641Z,13.94
2022-10-31T10:07:06.647Z,14.11
2022-10-31T10:09:51.922Z,13.94
2022-10-31T10:12:43.215Z,14.34
2022-10-31T10:15:49.331Z,14.49
2022-10-31T10:18:44.945Z,14.19
2022-10-31T10:21:29.626Z,13.68
2022-10-31T10:24:14.409Z,13.51
2022-10-31T10:27:13.288Z,13.38
2022-10-31T10:29:50.514Z,13.50
2022-10-31T10:32:46.596Z,13.15
2022-10-31T10:35:17.581Z,12.83
2022-10-31T10:37:47.415Z,12.84
2022-10-31T10:40:19.596Z,12.81
2022-10-31T10:43:15.600Z,12.87
2022-10-31T10:46:06.542Z,13.12
2022-10-31T10:49:10.459Z,12.94
2022-10-31T10:52:02.798Z,12.94
2022-10-31T10:54:45.601Z,13.16
2022-10-31T10:57:12.778Z,13.03
2022-10-31T10:59:39.456Z,12.92
2022-10-31T11:02:34.587Z,12.81
2022-10-31T11:05:02.763Z,12.76
2022-10-31T11:07:40.825Z,12.88
2022-10-31T11:10:15.150Z,13.10
2022-10-31T11:12:43.179Z,13.12
2022-10-31T11:15:22.185Z,13.27
2022-10-31T11:17:54.052Z,13.41
2022-10-31T11:20:20.835Z,13.51
2022-10-31T11:22:49.415Z,13.47
2022-10-31T11:25:27.080Z,13.43
2022-10-31T11:28:05.935Z,13.42
2022-10-31T11:30:44.348Z,13.45
2022-10-31T11:33:25.850Z,13.48
2022-10-31T11:35:57.887Z,13.31
2022-10-31T11:38:32.590Z,13.40
2022-10-31T11:41:18.501Z,13.35
2022-10-31T11:44:05.931Z,13.16
2022-10-31T11:46:39.305Z,13.17
2022-10-31T11:49:16.051Z,12.98
2022-10-31T11:51:43.056Z,12.73
2022-10-31T11:54:27.510Z,12.68
2022-10-31T11:56:54.271Z,12.67
2022-10-31T11:59:26.426Z,12.59
2022-10-31T12:01:55.014Z,12.69
2022-10-31T12:04:29.248Z,12.74
2022-10-31T12:06:56.041Z,12.76
2022-10-31T12:09:27.799Z,12.73
2022-10-31T12:12:22.954Z,12.74
2022-10-31T12:14:55.681Z,12.59
2022-10-31T12:17:29.332Z,12.55
2022-10-31T12:20:24.034Z,12.60
2022-10-31T12:22:59.926Z,12.66
2022-10-31T12:25:32.866Z,12.64
2022-10-31T12:28:33.959Z,12.50
2022-10-31T12:31:22.142Z,12.55
2022-10-31T12:34:04.424Z,12.62
2022-10-31T12:36:36.353Z,12.62
2022-10-31T12:39:39.856Z,12.61
2022-10-31T12:42:12.421Z,12.56
2022-10-31T12:45:05.907Z,12.51
2022-10-31T12:47:56.902Z,12.53
2022-10-31T12:50:51.718Z,12.53
2022-10-31T12:53:34.621Z,12.51
2022-10-31T12:56:35.318Z,12.51
2022-10-31T12:59:22.608Z,12.52
2022-10-31T13:02:00.637Z,12.59
2022-10-31T13:04:47.804Z,12.55
2022-10-31T13:07:35.586Z,12.50
2022-10-31T13:10:02.250Z,12.44
2022-10-31T13:12:33.382Z,12.35
2022-10-31T13:15:23.502Z,12.39
2022-10-31T13:17:57.133Z,12.37
2022-10-31T13:20:33.865Z,12.41
2022-10-31T13:23:49.194Z,12.45
2022-10-31T13:26:13.738Z,12.52
2022-10-31T13:29:10.374Z,12.50
2022-10-31T13:31:41.227Z,12.52
2022-10-31T13:34:21.323Z,12.58
2022-10-31T13:36:58.102Z,12.62
2022-10-31T13:40:01.961Z,12.62
2022-10-31T13:42:40.523Z,12.65
2022-10-31T13:45:15.853Z,12.64
2022-10-31T13:47:46.257Z,12.64
2022-10-31T13:50:19.384Z,12.62
2022-10-31T13:52:46.761Z,12.62
2022-10-31T13:55:36.345Z,12.53
2022-10-31T13:58:25.857Z,12.55
2022-10-31T14:01:07.214Z,12.42
2022-10-31T14:04:03.298Z,12.51
2022-10-31T14:06:25.068Z,12.45
2022-10-31T14:08:53.239Z,12.30
2022-10-31T14:11:32.825Z,12.28
2022-10-31T14:14:03.265Z,12.27
2022-10-31T14:16:32.872Z,12.24
2022-10-31T14:19:09.240Z,12.23
2022-10-31T14:21:42.932Z,12.21
2022-10-31T14:24:26.095Z,12.25
2022-10-31T14:27:20.292Z,12.29
2022-10-31T14:29:50.435Z,12.28
2022-10-31T14:32:25.302Z,12.23
2022-10-31T14:34:51.941Z,12.29
2022-10-31T14:37:24.540Z,12.28
2022-10-31T14:40:12.701Z,12.27
2022-10-31T14:42:58.186Z,12.23
2022-10-31T14:45:50.851Z,12.20
2022-10-31T14:48:41.933Z,12.24
2022-10-31T14:51:17.786Z,12.22
2022-10-31T14:53:53.551Z,12.20
2022-10-31T14:56:27.988Z,12.23
2022-10-31T14:58:58.764Z,12.22
2022-10-31T15:01:37.776Z,12.20
2022-10-31T15:04:24.740Z,12.15
2022-10-31T15:07:37.719Z,12.19
2022-10-31T15:10:07.728Z,12.14
2022-10-31T15:12:39.378Z,12.15
2022-10-31T15:15:20.060Z,12.17
2022-10-31T15:17:51.383Z,12.17
2022-10-31T15:20:19.249Z,12.13
2022-10-31T15:22:46.961Z,12.14
2022-10-31T15:25:19.611Z,12.11
2022-10-31T15:27:47.995Z,12.13
2022-10-31T15:30:26.383Z,12.10
2022-10-31T15:33:01.126Z,12.08
2022-10-31T15:35:30.417Z,12.06
2022-10-31T15:38:02.601Z,12.02
2022-10-31T15:40:29.631Z,12.00
2022-10-31T15:43:02.924Z,12.00
2022-10-31T15:45:31.477Z,11.98
2022-10-31T15:48:02.150Z,11.96
2022-10-31T15:50:54.532Z,11.97
2022-10-31T15:53:43.935Z,11.94
2022-10-31T15:56:14.783Z,11.93
2022-10-31T15:58:48.297Z,11.94
2022-10-31T16:01:26.550Z,11.93
2022-10-31T16:04:19.527Z,11.97
2022-10-31T16:06:59.494Z,11.98
2022-10-31T16:09:26.335Z,11.96
2022-10-31T16:11:53.470Z,11.93
2022-10-31T16:14:25.825Z,11.95
2022-10-31T16:16:58.733Z,11.96
2022-10-31T16:19:29.856Z,11.93
2022-10-31T16:22:13.205Z,11.92
2022-10-31T16:24:52.112Z,11.88
2022-10-31T16:27:26.729Z,11.86
2022-10-31T16:29:53.954Z,11.88
2022-10-31T16:32:52.391Z,11.89
2022-10-31T16:35:24.546Z,11.89
2022-10-31T16:37:51.277Z,11.88
2022-10-31T16:40:18.698Z,11.81
2022-10-31T16:42:46.262Z,11.75
2022-10-31T16:45:31.172Z,11.78
2022-10-31T16:48:07.203Z,11.78
2022-10-31T16:50:34.086Z,11.75
2022-10-31T16:53:16.157Z,11.76
2022-10-31T16:55:46.763Z,11.74
2022-10-31T16:58:22.045Z,11.73
2022-10-31T17:00:49.140Z,11.74
2022-10-31T17:03:16.036Z,11.74
2022-10-31T17:05:42.781Z,11.77
2022-10-31T17:08:09.453Z,11.78
2022-10-31T17:10:36.863Z,11.81
2022-10-31T17:13:05.631Z,11.82
2022-10-31T17:15:42.659Z,11.80
2022-10-31T17:18:13.255Z,11.81
2022-10-31T17:20:40.038Z,11.84
2022-10-31T17:23:06.670Z,11.87
2022-10-31T17:25:33.408Z,11.87
2022-10-31T17:28:00.131Z,11.88
2022-10-31T17:30:27.104Z,11.88
2022-10-31T17:32:55.331Z,11.83
2022-10-31T17:35:22.161Z,11.86
2022-10-31T17:37:49.275Z,11.82
2022-10-31T17:40:21.810Z,11.83
2022-10-31T17:42:53.905Z,11.77
2022-10-31T17:45:21.934Z,11.76
2022-10-31T17:47:49.825Z,11.74
2022-10-31T17:50:18.148Z,11.76
2022-10-31T17:52:45.304Z,11.80
2022-10-31T17:55:12.835Z,11.77
2022-10-31T17:57:39.992Z,11.73
2022-10-31T18:00:09.606Z,11.71
2022-10-31T18:02:38.158Z,11.74
2022-10-31T18:05:05.868Z,11.67
2022-10-31T18:07:33.181Z,11.62
2022-10-31T18:10:00.372Z,11.59
2022-10-31T18:12:27.729Z,11.57
2022-10-31T18:14:55.052Z,11.54
2022-10-31T18:17:22.082Z,11.51
2022-10-31T18:19:49.065Z,11.51
2022-10-31T18:22:15.744Z,11.49
2022-10-31T18:24:42.399Z,11.47
2022-10-31T18:27:09.168Z,11.47
2022-10-31T18:29:35.777Z,11.46
2022-10-31T18:32:06.906Z,11.46
2022-10-31T18:34:36.078Z,11.44
2022-10-31T18:37:03.275Z,11.43
2022-10-31T18:39:30.053Z,11.43
2022-10-31T18:41:56.883Z,11.41
2022-10-31T18:44:23.619Z,11.43
2022-10-31T18:46:50.364Z,11.47
2022-10-31T18:49:22.502Z,11.51
2022-10-31T18:51:50.616Z,11.50
2022-10-31T18:54:17.956Z,11.50
2022-10-31T18:56:45.342Z,11.53
2022-10-31T18:59:12.415Z,11.53
2022-10-31T19:01:40.039Z,11.53
2022-10-31T19:04:06.948Z,11.51
2022-10-31T19:06:33.960Z,11.50
2022-10-31T19:09:04.427Z,11.48
2022-10-31T19:11:34.968Z,11.47
2022-10-31T19:14:02.063Z,11.43
2022-10-31T19:16:29.416Z,11.46
2022-10-31T19:18:58.605Z,11.43
2022-10-31T19:21:25.943Z,11.45
2022-10-31T19:23:54.531Z,11.45
2022-10-31T19:26:21.255Z,11.41
2022-10-31T19:28:48.091Z,11.41
2022-10-31T19:31:14.965Z,11.39
2022-10-31T19:33:41.717Z,11.44
2022-10-31T19:36:11.054Z,11.42
2022-10-31T19:38:41.544Z,11.46
2022-10-31T19:41:20.494Z,11.48
2022-10-31T19:43:47.235Z,11.50
2022-10-31T19:46:27.749Z,11.50
2022-10-31T19:49:02.715Z,11.47
2022-10-31T19:51:29.428Z,11.46
2022-10-31T19:53:56.135Z,11.45
2022-10-31T19:56:25.412Z,11.46
2022-10-31T19:58:52.525Z,11.47
2022-10-31T20:01:21.949Z,11.47
2022-10-31T20:03:51.565Z,11.46
2022-10-31T20:06:39.533Z,11.49
2022-10-31T20:09:09.620Z,11.48
2022-10-31T20:11:38.916Z,11.48
2022-10-31T20:14:06.253Z,11.45
2022-10-31T20:16:33.381Z,11.48
2022-10-31T20:19:00.421Z,11.50
2022-10-31T20:21:30.036Z,11.55
2022-10-31T20:24:01.408Z,11.56
2022-10-31T20:26:29.089Z,11.60
2022-10-31T20:28:56.903Z,11.59
2022-10-31T20:31:26.489Z,11.57
2022-10-31T20:33:54.272Z,11.60
2022-10-31T20:36:22.923Z,11.58
2022-10-31T20:38:51.855Z,11.55
2022-10-31T20:41:18.875Z,11.51
2022-10-31T20:43:45.832Z,11.48
2022-10-31T20:46:18.905Z,11.46
2022-10-31T20:48:46.207Z,11.46
2022-10-31T20:51:18.875Z,11.47
2022-10-31T20:53:45.636Z,11.49
2022-10-31T20:56:14.690Z,11.48
2022-10-31T20:58:43.009Z,11.50
2022-10-31T21:01:20.284Z,11.53
2022-10-31T21:03:48.885Z,11.47
2022-10-31T21:06:17.188Z,11.48
2022-10-31T21:08:51.475Z,11.52
2022-10-31T21:11:21.397Z,11.54
2022-10-31T21:13:49.314Z,11.56
2022-10-31T21:16:19.113Z,11.58
2022-10-31T21:18:46.863Z,11.57
2022-10-31T21:21:24.131Z,11.57
2022-10-31T21:24:03.517Z,11.54
2022-10-31T21:26:33.730Z,11.53
2022-10-31T21:29:01.301Z,11.53
2022-10-31T21:31:28.425Z,11.47
2022-10-31T21:33:56.051Z,11.47
2022-10-31T21:36:23.197Z,11.44
2022-10-31T21:38:51.462Z,11.45
2022-10-31T21:41:19.226Z,11.49
2022-10-31T21:43:47.473Z,11.51
2022-10-31T21:46:20.187Z,11.55
2022-10-31T21:48:47.612Z,11.55
2022-10-31T21:51:18.328Z,11.56
2022-10-31T21:54:03.709Z,11.55
2022-10-31T21:56:30.605Z,11.53
2022-10-31T21:58:57.608Z,11.49
2022-10-31T22:01:26.338Z,11.47
2022-10-31T22:03:53.291Z,11.44
2022-10-31T22:06:20.615Z,11.43
2022-10-31T22:08:47.770Z,11.40
2022-10-31T22:11:16.451Z,11.37
2022-10-31T22:13:46.321Z,11.36
2022-10-31T22:16:18.734Z,11.34
2022-10-31T22:18:46.315Z,11.32
2022-10-31T22:21:16.344Z,11.28
2022-10-31T22:23:43.979Z,11.27
2022-10-31T22:26:15.304Z,11.24
2022-10-31T22:28:43.059Z,11.22
2022-10-31T22:33:44.201Z,11.16
2022-10-31T22:36:13.818Z,11.13
2022-10-31T22:38:41.977Z,11.10
2022-10-31T22:41:12.922Z,11.09
2022-10-31T22:43:40.064Z,11.10
2022-10-31T22:46:08.938Z,11.11
2022-10-31T22:48:38.090Z,11.10
2022-10-31T22:51:29.476Z,11.09
2022-10-31T22:53:56.793Z,11.14
2022-10-31T22:56:26.791Z,11.12
2022-10-31T22:58:54.002Z,11.12
2022-10-31T23:01:24.574Z,11.09
2022-10-31T23:03:51.888Z,11.11
2022-10-31T23:06:21.257Z,11.09
2022-10-31T23:08:49.101Z,11.08
2022-10-31T23:11:17.139Z,11.09
2022-10-31T23:14:04.273Z,11.10
2022-10-31T23:16:31.902Z,11.09
2022-10-31T23:19:00.007Z,11.14
2022-10-31T23:21:53.867Z,11.19
2022-10-31T23:24:23.065Z,11.26
2022-10-31T23:27:10.135Z,11.30
2022-10-31T23:29:50.255Z,11.32
2022-10-31T23:32:32.179Z,11.35
2022-10-31T23:35:02.288Z,11.36
2022-10-31T23:37:31.334Z,11.39
2022-10-31T23:39:58.321Z,11.35
2022-10-31T23:42:26.225Z,11.37
2022-10-31T23:44:53.659Z,11.34
2022-10-31T23:47:21.894Z,11.37
2022-10-31T23:49:49.121Z,11.36
2022-10-31T23:52:19.392Z,11.36
2022-10-31T23:54:46.133Z,11.34
2022-10-31T23:57:14.327Z,11.35
2022-10-31T23:59:41.679Z,11.33
